createdAt,value
2023-06-11T00:01:55.991Z,100047.52
2023-06-11T00:04:27.366Z,100046.16
2023-06-11T00:06:57.782Z,100049.37
2023-06-11T00:09:44.999Z,100047.63
2023-06-11T00:12:35.334Z,100048.32
2023-06-11T00:15:06.350Z,100045.81
2023-06-11T00:17:38.701Z,100048.09
2023-06-11T00:20:09.597Z,100044.02
2023-06-11T00:22:41.547Z,100044.20
2023-06-11T00:25:11.145Z,100041.06
2023-06-11T00:27:47.890Z,100039.53
2023-06-11T00:30:17.513Z,100039.83
2023-06-11T00:32:46.513Z,100044.52
2023-06-11T00:35:22.685Z,100046.52
2023-06-11T00:37:50.677Z,100049.17
2023-06-11T00:40:22.172Z,100050.21
2023-06-11T00:42:58.333Z,100053.02
2023-06-11T00:45:56.679Z,100058.16
2023-06-11T00:48:24.986Z,100054.44
2023-06-11T00:50:52.403Z,100057.61
2023-06-11T00:53:40.886Z,100056.23
2023-06-11T00:56:07.887Z,100059.73
2023-06-11T00:58:36.276Z,100055.68
2023-06-11T01:01:06.143Z,100057.30
2023-06-11T01:03:42.009Z,100057.48
2023-06-11T01:06:34.190Z,100059.81
2023-06-11T01:09:04.917Z,100063.75
2023-06-11T01:11:35.681Z,100063.02
2023-06-11T01:14:46.090Z,100061.70
2023-06-11T01:17:41.314Z,100068.51
2023-06-11T01:20:26.021Z,100069.34
2023-06-11T01:23:35.541Z,100071.08
2023-06-11T01:26:43.477Z,100074.84
2023-06-11T01:29:22.279Z,100075.70
2023-06-11T01:31:51.269Z,100076.13
2023-06-11T01:34:25.945Z,100076.05
2023-06-11T01:36:52.887Z,100079.59
2023-06-11T01:39:51.969Z,100079.95
2023-06-11T01:42:38.355Z,100079.68
2023-06-11T01:45:09.192Z,100083.59
2023-06-11T01:47:37.745Z,100080.27
2023-06-11T01:50:07.817Z,100077.55
2023-06-11T01:52:42.161Z,100080.30
2023-06-11T01:55:45.620Z,100083.00
2023-06-11T01:58:12.785Z,100079.31
2023-06-11T02:00:43.863Z,100081.90
2023-06-11T02:03:14.242Z,100083.31
2023-06-11T02:05:43.712Z,100082.98
2023-06-11T02:08:13.700Z,100082.98
2023-06-11T02:10:52.878Z,100083.33
2023-06-11T02:13:31.157Z,100084.69
2023-06-11T02:15:59.497Z,100087.73
2023-06-11T02:18:26.287Z,100088.78
2023-06-11T02:20:53.486Z,100087.57
2023-06-11T02:23:20.775Z,100091.16
2023-06-11T02:25:48.036Z,100089.29
2023-06-11T02:28:16.745Z,100089.09
2023-06-11T02:30:43.702Z,100087.65
2023-06-11T02:33:13.649Z,100094.84
2023-06-11T02:35:40.683Z,100092.06
2023-06-11T02:38:07.598Z,100094.72
2023-06-11T02:40:34.851Z,100093.27
2023-06-11T02:43:02.214Z,100098.67
2023-06-11T02:45:36.490Z,100097.46
2023-06-11T02:48:03.890Z,100099.91
2023-06-11T02:50:31.006Z,100102.91
2023-06-11T02:52:59.921Z,100105.23
2023-06-11T02:55:27.187Z,100108.26
2023-06-11T02:58:03.117Z,100104.81
2023-06-11T03:00:30.330Z,100108.83
2023-06-11T03:02:57.401Z,100105.13
2023-06-11T03:05:44.961Z,100106.56
2023-06-11T03:08:12.015Z,100109.36
2023-06-11T03:10:39.816Z,100109.21
2023-06-11T03:13:16.201Z,100111.20
2023-06-11T03:15:43.166Z,100113.20
2023-06-11T03:18:21.344Z,100114.05
2023-06-11T03:20:48.304Z,100114.40
2023-06-11T03:23:16.038Z,100114.24
2023-06-11T03:25:43.885Z,100119.26
2023-06-11T03:28:13.773Z,100122.77
2023-06-11T03:30:40.766Z,100125.61
2023-06-11T03:33:10.703Z,100122.52
2023-06-11T03:35:40.604Z,100123.46
2023-06-11T03:38:08.007Z,100126.50
2023-06-11T03:40:35.163Z,100130.93
2023-06-11T03:43:02.245Z,100129.88
2023-06-11T03:45:29.234Z,100129.73
2023-06-11T03:47:59.650Z,100129.11
2023-06-11T03:50:37.609Z,100129.38
2023-06-11T03:53:05.040Z,100128.95
2023-06-11T03:55:32.194Z,100129.94
2023-06-11T03:57:59.240Z,100130.13
2023-06-11T04:00:39.409Z,100131.16
2023-06-11T04:03:06.606Z,100134.13
2023-06-11T04:05:37.271Z,100135.44
2023-06-11T04:08:07.298Z,100139.02
2023-06-11T04:10:47.550Z,100137.67
2023-06-11T04:13:32.267Z,100141.31
2023-06-11T04:16:04.415Z,100143.20
2023-06-11T04:18:33.968Z,100143.52
2023-06-11T04:21:01.469Z,100145.95
2023-06-11T04:23:28.325Z,100145.71
2023-06-11T04:26:04.636Z,100152.98
2023-06-11T04:28:36.783Z,100154.74
2023-06-11T04:31:04.932Z,100153.87
2023-06-11T04:33:37.334Z,100154.41
2023-06-11T04:36:05.642Z,100156.96
2023-06-11T04:38:32.813Z,100156.11
2023-06-11T04:41:01.241Z,100155.55
2023-06-11T04:43:48.950Z,100156.48
2023-06-11T04:46:16.762Z,100157.81
2023-06-11T04:48:43.664Z,100158.95
2023-06-11T04:51:44.235Z,100159.58
2023-06-11T04:54:33.665Z,100158.34
2023-06-11T04:57:00.520Z,100163.76
2023-06-11T04:59:27.757Z,100165.77
2023-06-11T05:01:56.042Z,100171.95
2023-06-11T05:04:26.189Z,100166.86
2023-06-11T05:06:58.529Z,100164.09
2023-06-11T05:09:25.998Z,100164.47
2023-06-11T05:11:52.975Z,100162.45
2023-06-11T05:14:20.339Z,100164.78
2023-06-11T05:17:17.490Z,100160.34
2023-06-11T05:19:44.418Z,100159.75
2023-06-11T05:22:11.518Z,100162.44
2023-06-11T05:24:42.081Z,100163.61
2023-06-11T05:27:09.503Z,100161.48
2023-06-11T05:29:53.869Z,100160.82
2023-06-11T05:32:23.406Z,100162.38
2023-06-11T05:34:53.423Z,100161.34
2023-06-11T05:37:20.385Z,100162.77
2023-06-11T05:39:47.406Z,100158.88
2023-06-11T05:42:40.206Z,100161.50
2023-06-11T05:45:36.464Z,100163.52
2023-06-11T05:48:08.921Z,100171.10
2023-06-11T05:50:36.084Z,100169.14
2023-06-11T05:53:02.964Z,100167.27
2023-06-11T05:55:30.216Z,100168.10
2023-06-11T05:57:57.059Z,100169.23
2023-06-11T06:00:28.315Z,100168.41
2023-06-11T06:03:56.234Z,100172.92
2023-06-11T06:06:44.063Z,100177.46
2023-06-11T06:09:13.499Z,100179.65
2023-06-11T06:11:41.360Z,100181.55
2023-06-11T06:14:49.426Z,100185.96
2023-06-11T06:17:16.551Z,100187.21
2023-06-11T06:20:05.060Z,100186.02
2023-06-11T06:22:52.393Z,100186.92
2023-06-11T06:25:19.730Z,100192.11
2023-06-11T06:27:46.836Z,100190.20
2023-06-11T06:30:15.244Z,100191.16
2023-06-11T06:32:43.916Z,100191.71
2023-06-11T06:35:53.921Z,100195.10
2023-06-11T06:38:21.520Z,100194.08
2023-06-11T06:40:48.641Z,100194.40
2023-06-11T06:43:16.370Z,100194.73
2023-06-11T06:45:43.467Z,100191.10
2023-06-11T06:48:51.605Z,100193.58
2023-06-11T06:52:19.653Z,100198.67
2023-06-11T06:54:48.615Z,100197.65
2023-06-11T06:57:38.281Z,100201.34
2023-06-11T07:00:08.583Z,100195.70
2023-06-11T07:02:39.263Z,100201.61
2023-06-11T07:05:06.642Z,100201.59
2023-06-11T07:07:50.754Z,100202.45
2023-06-11T07:10:38.298Z,100206.09
2023-06-11T07:13:28.081Z,100204.52
2023-06-11T07:15:55.258Z,100202.31
2023-06-11T07:18:22.756Z,100205.73
2023-06-11T07:20:52.880Z,100205.10
2023-06-11T07:23:23.395Z,100208.00
2023-06-11T07:26:16.328Z,100209.20
2023-06-11T07:28:43.339Z,100202.73
2023-06-11T07:31:30.927Z,100205.98
2023-06-11T07:34:07.073Z,100206.70
2023-06-11T07:36:34.255Z,100212.44
2023-06-11T07:39:04.033Z,100209.14
2023-06-11T07:41:34.792Z,100210.16
2023-06-11T07:44:01.875Z,100209.69
2023-06-11T07:46:29.534Z,100209.94
2023-06-11T07:49:05.557Z,100207.27
2023-06-11T07:51:32.998Z,100212.39
2023-06-11T07:54:01.397Z,100212.00
2023-06-11T07:56:31.919Z,100212.50
2023-06-11T07:58:59.727Z,100212.77
2023-06-11T08:01:30.152Z,100210.92
2023-06-11T08:03:57.488Z,100211.61
2023-06-11T08:06:44.777Z,100208.10
2023-06-11T08:09:11.568Z,100207.02
2023-06-11T08:11:49.581Z,100205.45
2023-06-11T08:14:21.301Z,100200.35
2023-06-11T08:16:50.956Z,100206.98
2023-06-11T08:19:38.581Z,100207.98
2023-06-11T08:22:05.631Z,100206.05
2023-06-11T08:24:32.796Z,100208.41
2023-06-11T08:27:03.098Z,100209.52
2023-06-11T08:29:59.772Z,100201.86
2023-06-11T08:32:35.664Z,100205.34
2023-06-11T08:35:02.519Z,100209.09
2023-06-11T08:37:38.922Z,100209.63
2023-06-11T08:40:21.546Z,100214.00
2023-06-11T08:42:48.616Z,100211.39
2023-06-11T08:45:16.058Z,100208.30
2023-06-11T08:48:09.192Z,100202.95
2023-06-11T08:50:36.949Z,100201.64
2023-06-11T08:53:31.981Z,100204.36
2023-06-11T08:56:00.556Z,100206.73
2023-06-11T08:58:32.302Z,100199.55
2023-06-11T09:01:52.929Z,100198.10
2023-06-11T09:04:50.231Z,100197.66
2023-06-11T09:07:24.593Z,100195.41
2023-06-11T09:10:11.492Z,100187.98
2023-06-11T09:12:39.169Z,100188.67
2023-06-11T09:15:10.297Z,100189.95
2023-06-11T09:17:39.080Z,100187.98
2023-06-11T09:20:09.872Z,100196.55
2023-06-11T09:22:56.718Z,100196.98
2023-06-11T09:25:26.414Z,100192.90
2023-06-11T09:27:53.343Z,100188.65
2023-06-11T09:30:29.354Z,100190.41
2023-06-11T09:33:15.922Z,100186.44
2023-06-11T09:36:13.516Z,100189.40
2023-06-11T09:38:40.825Z,100188.73
2023-06-11T09:41:32.804Z,100191.02
2023-06-11T09:44:01.191Z,100183.73
2023-06-11T09:46:38.015Z,100185.09
2023-06-11T09:49:21.109Z,100181.58
2023-06-11T09:51:49.941Z,100188.11
2023-06-11T09:54:26.349Z,100188.14
2023-06-11T09:56:53.698Z,100182.93
2023-06-11T09:59:26.180Z,100181.22
2023-06-11T10:02:04.633Z,100174.53
2023-06-11T10:04:31.945Z,100175.31
2023-06-11T10:07:01.124Z,100184.39
2023-06-11T10:09:31.933Z,100187.69
2023-06-11T10:12:02.429Z,100187.86
2023-06-11T10:14:30.939Z,100186.48
2023-06-11T10:17:21.720Z,100185.19
2023-06-11T10:20:10.329Z,100186.05
2023-06-11T10:22:45.947Z,100190.23
2023-06-11T10:25:13.008Z,100181.30
2023-06-11T10:27:43.086Z,100178.42
2023-06-11T10:30:25.708Z,100179.36
2023-06-11T10:32:54.598Z,100175.95
2023-06-11T10:35:24.922Z,100171.94
2023-06-11T10:38:06.572Z,100177.21
2023-06-11T10:40:35.820Z,100178.88
2023-06-11T10:43:15.091Z,100184.88
2023-06-11T10:46:20.871Z,100179.20
2023-06-11T10:48:55.326Z,100171.55
2023-06-11T10:51:22.869Z,100173.75
2023-06-11T10:53:59.025Z,100173.33
2023-06-11T10:56:32.690Z,100175.84
2023-06-11T10:59:09.689Z,100173.48
2023-06-11T11:01:37.707Z,100170.15
2023-06-11T11:04:13.611Z,100168.35
2023-06-11T11:06:44.314Z,100170.77
2023-06-11T11:09:12.318Z,100171.54
2023-06-11T11:11:48.778Z,100165.96
2023-06-11T11:14:18.384Z,100169.86
2023-06-11T11:16:49.768Z,100171.95
2023-06-11T11:19:24.803Z,100165.35
2023-06-11T11:22:01.895Z,100160.23
2023-06-11T11:24:35.025Z,100152.93
2023-06-11T11:27:03.335Z,100157.86
2023-06-11T11:29:33.469Z,100147.90
2023-06-11T11:32:00.545Z,100152.19
2023-06-11T11:34:38.648Z,100153.58
2023-06-11T11:37:07.281Z,100148.70
2023-06-11T11:39:34.702Z,100147.11
2023-06-11T11:42:08.025Z,100151.20
2023-06-11T11:44:42.900Z,100153.69
2023-06-11T11:47:22.860Z,100150.86
2023-06-11T11:50:02.399Z,100147.34
2023-06-11T11:52:29.562Z,100147.06
2023-06-11T11:54:59.520Z,100145.27
2023-06-11T11:57:29.636Z,100154.00
2023-06-11T12:00:24.800Z,100148.14
2023-06-11T12:02:52.091Z,100143.27
2023-06-11T12:05:40.803Z,100145.25
2023-06-11T12:08:08.632Z,100148.06
2023-06-11T12:10:36.169Z,100144.69
2023-06-11T12:13:06.362Z,100139.75
2023-06-11T12:15:33.376Z,100140.58
2023-06-11T12:18:00.901Z,100142.48
2023-06-11T12:20:29.153Z,100139.98
2023-06-11T12:22:56.099Z,100142.23
2023-06-11T12:25:33.536Z,100148.10
2023-06-11T12:28:21.359Z,100138.16
2023-06-11T12:30:48.676Z,100135.33
2023-06-11T12:33:16.561Z,100138.03
2023-06-11T12:35:44.813Z,100142.11
2023-06-11T12:38:19.124Z,100147.41
2023-06-11T12:40:48.542Z,100149.59
2023-06-11T12:43:15.756Z,100143.09
2023-06-11T12:46:02.264Z,100133.90
2023-06-11T12:48:29.270Z,100133.42
2023-06-11T12:50:59.149Z,100131.45
2023-06-11T12:53:26.816Z,100138.44
2023-06-11T12:55:53.866Z,100135.11
2023-06-11T12:58:23.491Z,100133.95
2023-06-11T13:00:53.480Z,100130.98
2023-06-11T13:03:40.858Z,100118.95
2023-06-11T13:06:08.789Z,100121.41
2023-06-11T13:09:05.330Z,100125.23
2023-06-11T13:11:44.656Z,100124.98
2023-06-11T13:14:14.259Z,100130.29
2023-06-11T13:16:47.192Z,100119.35
2023-06-11T13:19:37.673Z,100123.95
2023-06-11T13:22:07.680Z,100128.93
2023-06-11T13:24:55.268Z,100130.92
2023-06-11T13:27:22.243Z,100132.76
2023-06-11T13:30:10.872Z,100129.48
2023-06-11T13:33:02.035Z,100123.59
2023-06-11T13:35:38.863Z,100118.61
2023-06-11T13:38:08.661Z,100117.56
2023-06-11T13:40:45.417Z,100115.11
2023-06-11T13:43:31.743Z,100113.06
2023-06-11T13:45:59.465Z,100112.02
2023-06-11T13:48:27.384Z,100113.48
2023-06-11T13:50:56.210Z,100108.20
2023-06-11T13:53:24.602Z,100114.67
2023-06-11T13:55:53.031Z,100110.83
2023-06-11T13:58:22.901Z,100108.17
2023-06-11T14:00:57.977Z,100109.31
2023-06-11T14:03:24.997Z,100118.01
2023-06-11T14:06:13.755Z,100123.23
2023-06-11T14:08:42.163Z,100117.98
2023-06-11T14:11:24.669Z,100113.67
2023-06-11T14:13:51.579Z,100108.86
2023-06-11T14:16:28.502Z,100107.73
2023-06-11T14:19:28.781Z,100101.86
2023-06-11T14:21:55.849Z,100100.39
2023-06-11T14:25:14.289Z,100101.89
2023-06-11T14:27:41.738Z,100106.89
2023-06-11T14:30:09.202Z,100112.33
2023-06-11T14:32:48.422Z,100113.08
2023-06-11T14:35:42.985Z,100113.52
2023-06-11T14:38:10.120Z,100110.19
2023-06-11T14:40:36.941Z,100106.39
2023-06-11T14:43:03.907Z,100098.24
2023-06-11T14:45:41.185Z,100092.39
2023-06-11T14:48:09.305Z,100088.35
2023-06-11T14:50:36.283Z,100095.70
2023-06-11T14:53:03.263Z,100094.04
2023-06-11T14:55:30.254Z,100090.94
2023-06-11T14:57:57.539Z,100092.86
2023-06-11T15:00:47.314Z,100094.38
2023-06-11T15:03:14.481Z,100091.41
2023-06-11T15:06:05.666Z,100095.92
2023-06-11T15:08:32.466Z,100091.29
2023-06-11T15:11:02.342Z,100085.29
2023-06-11T15:13:29.378Z,100091.82
2023-06-11T15:15:58.759Z,100093.17
2023-06-11T15:18:26.947Z,100090.00
2023-06-11T15:20:55.002Z,100090.84
2023-06-11T15:23:23.190Z,100089.60
2023-06-11T15:25:52.008Z,100095.67
2023-06-11T15:28:19.449Z,100088.39
2023-06-11T15:31:22.298Z,100088.71
2023-06-11T15:33:49.405Z,100088.09
2023-06-11T15:36:16.554Z,100085.31
2023-06-11T15:38:44.222Z,100082.73
2023-06-11T15:41:20.071Z,100084.77
2023-06-11T15:43:50.181Z,100078.63
2023-06-11T15:46:19.156Z,100079.09
2023-06-11T15:48:47.109Z,100078.46
2023-06-11T15:51:14.590Z,100073.48
2023-06-11T15:53:41.450Z,100075.69
2023-06-11T15:56:16.672Z,100075.72
2023-06-11T15:58:52.522Z,100076.36
2023-06-11T16:01:32.494Z,100073.81
2023-06-11T16:04:30.008Z,100069.20
2023-06-11T16:07:11.415Z,100070.86
2023-06-11T16:09:42.287Z,100070.28
2023-06-11T16:13:00.421Z,100065.97
2023-06-11T16:15:27.806Z,100073.37
2023-06-11T16:18:15.629Z,100072.71
2023-06-11T16:21:00.459Z,100070.05
2023-06-11T16:23:30.561Z,100067.54
2023-06-11T16:25:58.856Z,100071.63
2023-06-11T16:28:25.888Z,100070.60
2023-06-11T16:30:53.300Z,100065.78
2023-06-11T16:33:20.418Z,100064.61
2023-06-11T16:35:50.486Z,100063.36
2023-06-11T16:38:17.435Z,100064.67
2023-06-11T16:40:44.949Z,100063.59
2023-06-11T16:43:16.085Z,100066.27
2023-06-11T16:46:13.245Z,100069.54
2023-06-11T16:49:17.332Z,100068.16
2023-06-11T16:52:03.888Z,100070.80
2023-06-11T16:54:30.965Z,100072.67
2023-06-11T16:56:58.137Z,100076.79
2023-06-11T16:59:45.746Z,100079.45
2023-06-11T17:02:28.124Z,100080.39
2023-06-11T17:04:55.861Z,100082.56
2023-06-11T17:07:23.571Z,100081.74
2023-06-11T17:09:53.340Z,100078.43
2023-06-11T17:12:45.183Z,100075.56
2023-06-11T17:15:15.369Z,100080.11
2023-06-11T17:17:43.649Z,100082.21
2023-06-11T17:20:12.115Z,100081.10
2023-06-11T17:22:47.757Z,100083.85
2023-06-11T17:25:26.188Z,100081.27
2023-06-11T17:27:54.055Z,100081.13
2023-06-11T17:30:24.467Z,100082.50
2023-06-11T17:33:16.968Z,100082.91
2023-06-11T17:36:04.564Z,100084.77
2023-06-11T17:38:31.807Z,100082.96
2023-06-11T17:41:01.713Z,100080.91
2023-06-11T17:43:40.221Z,100079.86
2023-06-11T17:46:24.277Z,100082.65
2023-06-11T17:49:33.006Z,100081.48
2023-06-11T17:52:16.658Z,100083.79
2023-06-11T17:55:16.307Z,100081.45
2023-06-11T17:58:44.703Z,100085.58
2023-06-11T18:01:12.697Z,100082.50
2023-06-11T18:03:39.698Z,100081.58
2023-06-11T18:06:56.322Z,100079.42
2023-06-11T18:09:45.338Z,100082.17
2023-06-11T18:12:12.494Z,100086.84
2023-06-11T18:14:39.525Z,100084.75
2023-06-11T18:17:10.225Z,100087.33
2023-06-11T18:19:57.895Z,100087.48
2023-06-11T18:22:27.868Z,100085.33
2023-06-11T18:25:26.176Z,100085.86
2023-06-11T18:28:02.897Z,100092.90
2023-06-11T18:30:52.796Z,100095.77
2023-06-11T18:33:32.338Z,100091.83
2023-06-11T18:36:09.177Z,100090.35
2023-06-11T18:38:36.831Z,100091.98
2023-06-11T18:41:43.312Z,100093.67
2023-06-11T18:44:13.181Z,100090.78
2023-06-11T18:46:50.387Z,100089.25
2023-06-11T18:49:17.824Z,100091.40
2023-06-11T18:51:45.981Z,100093.84
2023-06-11T18:54:18.407Z,100094.17
2023-06-11T18:56:54.488Z,100095.73
2023-06-11T18:59:36.694Z,100097.84
2023-06-11T19:02:07.773Z,100100.83
2023-06-11T19:04:35.530Z,100100.19
2023-06-11T19:07:06.314Z,100097.55
2023-06-11T19:09:54.320Z,100097.70
2023-06-11T19:12:21.526Z,100099.39
2023-06-11T19:14:48.475Z,100100.05
2023-06-11T19:17:16.490Z,100102.48
2023-06-11T19:19:47.200Z,100105.35
2023-06-11T19:22:14.238Z,100105.46
2023-06-11T19:24:41.520Z,100104.17
2023-06-11T19:27:12.511Z,100104.77
2023-06-11T19:29:39.542Z,100103.42
2023-06-11T19:33:01.004Z,100109.86
2023-06-11T19:35:29.253Z,100115.34
2023-06-11T19:37:56.485Z,100116.41
2023-06-11T19:40:23.626Z,100120.78
2023-06-11T19:42:50.714Z,100123.45
2023-06-11T19:45:21.045Z,100128.77
2023-06-11T19:47:49.294Z,100130.39
2023-06-11T19:50:21.337Z,100124.55
2023-06-11T19:53:03.655Z,100125.99
2023-06-11T19:55:37.640Z,100129.54
2023-06-11T19:58:07.421Z,100131.80
2023-06-11T20:00:50.346Z,100132.48
2023-06-11T20:03:21.420Z,100133.77
2023-06-11T20:05:49.030Z,100139.39
2023-06-11T20:08:25.862Z,100140.04
2023-06-11T20:10:59.299Z,100143.44
2023-06-11T20:13:34.763Z,100145.11
2023-06-11T20:16:05.369Z,100145.83
2023-06-11T20:18:45.008Z,100149.83
2023-06-11T20:21:12.695Z,100152.48
2023-06-11T20:23:47.897Z,100155.14
2023-06-11T20:26:27.849Z,100157.70
2023-06-11T20:28:55.397Z,100157.10
2023-06-11T20:31:36.711Z,100157.01
2023-06-11T20:34:53.803Z,100163.58
2023-06-11T20:37:21.685Z,100166.05
2023-06-11T20:39:59.592Z,100169.93
2023-06-11T20:42:29.371Z,100171.06
2023-06-11T20:44:56.318Z,100172.91
2023-06-11T20:47:28.561Z,100173.69
2023-06-11T20:50:16.618Z,100173.35
2023-06-11T20:52:44.101Z,100173.30
2023-06-11T20:55:45.345Z,100170.34
2023-06-11T20:58:24.268Z,100173.62
2023-06-11T21:00:51.494Z,100174.22
2023-06-11T21:03:39.333Z,100172.51
2023-06-11T21:06:29.855Z,100171.45
2023-06-11T21:09:09.336Z,100174.19
2023-06-11T21:11:37.531Z,100171.60
2023-06-11T21:14:14.329Z,100177.68
2023-06-11T21:16:42.988Z,100179.79
2023-06-11T21:19:13.134Z,100180.61
2023-06-11T21:22:09.726Z,100179.73
2023-06-11T21:24:45.770Z,100181.61
2023-06-11T21:27:16.049Z,100183.23
2023-06-11T21:29:43.570Z,100180.89
2023-06-11T21:32:31.210Z,100185.31
2023-06-11T21:36:00.885Z,100182.44
2023-06-11T21:38:48.373Z,100186.67
2023-06-11T21:41:35.994Z,100184.70
2023-06-11T21:44:16.519Z,100186.61
2023-06-11T21:46:46.887Z,100186.59
2023-06-11T21:49:16.502Z,100182.63
2023-06-11T21:51:46.330Z,100183.80
2023-06-11T21:54:13.712Z,100186.95
2023-06-11T21:56:58.521Z,100186.86
2023-06-11T21:59:28.575Z,100185.84
2023-06-11T22:02:05.013Z,100185.74
2023-06-11T22:04:42.605Z,100184.25
2023-06-11T22:07:13.433Z,100182.77
2023-06-11T22:09:45.923Z,100183.06
2023-06-11T22:12:23.876Z,100182.62
2023-06-11T22:14:50.753Z,100180.14
2023-06-11T22:17:32.995Z,100181.82
2023-06-11T22:20:09.898Z,100179.66
2023-06-11T22:22:48.685Z,100177.48
2023-06-11T22:25:15.659Z,100177.45
2023-06-11T22:27:52.432Z,100176.16
2023-06-11T22:30:20.011Z,100174.02
2023-06-11T22:32:47.052Z,100174.66
2023-06-11T22:35:13.995Z,100172.52
2023-06-11T22:37:41.068Z,100176.49
2023-06-11T22:40:20.598Z,100178.73
2023-06-11T22:42:47.461Z,100176.98
2023-06-11T22:45:14.480Z,100174.08
2023-06-11T22:47:48.573Z,100173.18
2023-06-11T22:50:35.135Z,100176.63
2023-06-11T22:53:05.463Z,100176.29
2023-06-11T22:55:32.555Z,100174.19
2023-06-11T22:58:00.586Z,100175.45
2023-06-11T23:00:27.623Z,100173.54
2023-06-11T23:03:01.129Z,100173.19
2023-06-11T23:05:39.425Z,100169.67
2023-06-11T23:08:06.749Z,100169.34
2023-06-11T23:10:45.306Z,100171.04
2023-06-11T23:13:21.421Z,100171.04
2023-06-11T23:16:00.987Z,100171.58
2023-06-11T23:18:32.427Z,100169.95
2023-06-11T23:21:04.020Z,100166.80
2023-06-11T23:23:33.122Z,100168.65
2023-06-11T23:26:00.284Z,100170.79
2023-06-11T23:28:34.579Z,100168.27
2023-06-11T23:31:02.101Z,100165.70
2023-06-11T23:33:31.142Z,100161.15
2023-06-11T23:35:59.624Z,100157.45
2023-06-11T23:38:26.830Z,100158.48
2023-06-11T23:41:16.938Z,100155.71
2023-06-11T23:43:44.109Z,100152.88
2023-06-11T23:46:13.678Z,100152.11
2023-06-11T23:48:41.425Z,100148.11
2023-06-11T23:51:14.440Z,100150.53
2023-06-11T23:54:01.847Z,100155.69
2023-06-11T23:56:31.842Z,100155.95
2023-06-11T23:58:59.252Z,100150.36
